Time;durP1;ratioP1;P1;durP2;ratioP2;P2;SDS_P1;SDS_P2;PMS_P1;PMS_P2;Temp;Humidity;BMP_temperature;BMP_pressure;BME280_temperature;BME280_humidity;BME280_pressure;Samples;Min_cycle;Max_cycle;Signal;HPM_P1;HPM_P2
2023/03/26 00:02:01;;;;;;;;;;;;;;;11.23;60.12;94446.94;5078812;28;1179;-75
2023/03/26 00:04:32;;;;;;;;;;;;;;;11.22;60.53;94450.84;5095093;28;1170;-75
2023/03/26 00:07:00;;;;;;;;;;;;;;;11.13;60.61;94448.38;5078859;28;1901;-75
2023/03/26 00:09:28;;;;;;;;;;;;;;;11.12;60.80;94451.50;5077908;28;1090;-75
2023/03/26 00:11:57;;;;;;;;;;;;;;;11.12;60.89;94443.25;5078162;28;1155;-75
2023/03/26 00:14:25;;;;;;;;;;;;;;;11.12;61.11;94434.97;5078534;28;999;-75
2023/03/26 00:16:54;;;;;;;;;;;;;;;11.14;61.16;94433.41;5078247;28;994;-74
2023/03/26 00:19:22;;;;;;;;;;;;;;;11.12;60.89;94427.47;5078473;28;879;-75
2023/03/26 00:21:52;;;;;;;;;;;;;;;11.10;60.95;94424.28;5077297;28;1246;-75
2023/03/26 00:24:19;;;;;;;;;;;;;;;11.08;60.87;94416.38;5084347;28;1173;-75
2023/03/26 00:26:52;;;;;;;;;;;;;;;11.12;61.18;94418.41;5080822;28;1905;-74
2023/03/26 00:29:21;;;;;;;;;;;;;;;11.08;60.78;94408.09;5080516;28;1214;-74
2023/03/26 00:31:51;;;;;;;;;;;;;;;11.06;60.86;94406.88;5098458;28;962;-74
2023/03/26 00:34:21;;;;;;;;;;;;;;;11.04;60.79;94404.50;5080781;28;1176;-74
2023/03/26 00:36:53;;;;;;;;;;;;;;;11.06;60.64;94413.19;5098370;28;971;-74
2023/03/26 00:39:24;;;;;;;;;;;;;;;11.09;60.55;94415.19;5080490;28;1661;-74
2023/03/26 00:41:54;;;;;;;;;;;;;;;11.12;60.81;94412.88;5098181;28;1139;-74
2023/03/26 00:44:21;;;;;;;;;;;;;;;11.13;60.33;94411.69;5098233;28;939;-74
2023/03/26 00:46:52;;;;;;;;;;;;;;;11.08;60.22;94410.06;5080477;28;1910;-74
2023/03/26 00:49:29;;;;;;;;;;;;;;;11.11;60.42;94412.09;5080330;28;1235;-74
2023/03/26 00:51:57;;;;;;;;;;;;;;;11.16;59.70;94417.28;5080250;28;1183;-74
2023/03/26 00:54:27;;;;;;;;;;;;;;;11.18;59.94;94409.41;5078003;28;1230;-74
2023/03/26 00:56:56;;;;;;;;;;;;;;;11.16;59.75;94410.97;5097540;28;1076;-74
2023/03/26 00:59:29;;;;;;;;;;;;;;;11.15;59.97;94409.34;5080143;28;1257;-74
2023/03/26 01:01:59;;;;;;;;;;;;;;;11.17;59.81;94412.53;5096959;28;1179;-75
2023/03/26 01:04:33;;;;;;;;;;;;;;;11.11;59.67;94414.84;5097623;28;836;-75
2023/03/26 01:07:02;;;;;;;;;;;;;;;11.06;59.83;94417.91;5097820;28;1905;-75
2023/03/26 01:09:32;;;;;;;;;;;;;;;11.05;59.75;94416.31;5079768;28;1175;-75
2023/03/26 01:12:00;;;;;;;;;;;;;;;11.01;59.87;94423.75;5097835;28;784;-75
2023/03/26 01:14:29;;;;;;;;;;;;;;;10.96;60.19;94416.56;5097607;28;1038;-75
2023/03/26 01:16:57;;;;;;;;;;;;;;;10.90;60.49;94418.06;5080030;28;1201;-75
2023/03/26 01:19:28;;;;;;;;;;;;;;;10.88;60.35;94423.16;5097475;28;1125;-75
2023/03/26 01:21:56;;;;;;;;;;;;;;;10.91;60.62;94427.16;5080391;28;1188;-75
2023/03/26 01:24:26;;;;;;;;;;;;;;;10.92;60.32;94423.22;5096916;28;1298;-73
2023/03/26 01:27:08;;;;;;;;;;;;;;;10.92;60.79;94429.53;5096967;28;1902;-74
2023/03/26 01:29:38;;;;;;;;;;;;;;;10.95;60.93;94433.50;5096309;28;1032;-75
2023/03/26 01:32:13;;;;;;;;;;;;;;;10.91;60.87;94427.94;5097262;28;935;-75
2023/03/26 01:34:45;;;;;;;;;;;;;;;10.88;61.16;94431.44;5096050;28;1291;-75
2023/03/26 01:37:16;;;;;;;;;;;;;;;10.85;61.50;94432.16;5079354;28;1670;-75
2023/03/26 01:39:52;;;;;;;;;;;;;;;10.84;61.55;94433.34;5079204;28;1235;-76
2023/03/26 01:42:24;;;;;;;;;;;;;;;10.85;62.06;94435.72;5096913;28;1109;-75
2023/03/26 01:44:53;;;;;;;;;;;;;;;10.87;61.86;94424.34;5079309;28;1176;-75
2023/03/26 01:47:20;;;;;;;;;;;;;;;10.86;61.77;94425.50;5079130;28;1917;-75
2023/03/26 01:49:47;;;;;;;;;;;;;;;10.81;62.01;94434.88;5096851;28;1007;-75
2023/03/26 01:52:16;;;;;;;;;;;;;;;10.79;62.36;94448.25;5079069;28;1270;-75
2023/03/26 01:54:51;;;;;;;;;;;;;;;10.78;62.45;94443.09;5096873;28;787;-75
2023/03/26 01:57:23;;;;;;;;;;;;;;;10.73;62.10;94438.69;5079070;28;1492;-75
2023/03/26 01:59:55;;;;;;;;;;;;;;;10.70;62.59;94439.41;5079462;28;1176;-75
2023/03/26 02:02:25;;;;;;;;;;;;;;;10.71;62.60;94432.75;5096938;28;955;-75
2023/03/26 02:04:54;;;;;;;;;;;;;;;10.71;62.61;94440.22;5096835;28;994;-74
2023/03/26 02:07:24;;;;;;;;;;;;;;;10.70;62.71;94446.91;5078817;28;1983;-74
2023/03/26 02:09:57;;;;;;;;;;;;;;;10.70;62.52;94441.38;5095519;28;958;-75
2023/03/26 02:12:27;;;;;;;;;;;;;;;10.65;62.75;94442.50;5096551;28;1018;-75
2023/03/26 02:14:55;;;;;;;;;;;;;;;10.64;62.44;94448.38;5078737;28;970;-74
2023/03/26 02:17:23;;;;;;;;;;;;;;;10.64;62.81;94440.09;5078802;28;1198;-74
2023/03/26 02:19:51;;;;;;;;;;;;;;;10.64;62.73;94437.34;5078585;28;2090;-74
2023/03/26 02:22:19;;;;;;;;;;;;;;;10.65;62.65;94431.47;5096506;28;982;-74
2023/03/26 02:24:48;;;;;;;;;;;;;;;10.65;62.71;94431.47;5075212;28;1201;-75
2023/03/26 02:27:18;;;;;;;;;;;;;;;10.66;62.53;94435.00;5074992;28;1913;-74
2023/03/26 02:29:49;;;;;;;;;;;;;;;10.67;62.71;94437.41;5074799;28;1290;-75
2023/03/26 02:32:20;;;;;;;;;;;;;;;10.69;62.63;94442.56;5075931;28;874;-75
2023/03/26 02:34:50;;;;;;;;;;;;;;;10.71;62.36;94456.75;5075755;28;1077;-75
2023/03/26 02:37:18;;;;;;;;;;;;;;;10.68;62.16;94449.25;5075423;28;1105;-74
2023/03/26 02:39:46;;;;;;;;;;;;;;;10.68;62.09;94457.53;5076111;28;979;-75
2023/03/26 02:42:14;;;;;;;;;;;;;;;10.68;62.41;94454.75;5075824;28;1114;-74
2023/03/26 02:44:47;;;;;;;;;;;;;;;10.68;62.58;94458.31;5075584;28;1026;-74
2023/03/26 02:47:13;;;;;;;;;;;;;;;10.70;62.36;94458.72;5074765;28;1989;-75
2023/03/26 02:49:43;;;;;;;;;;;;;;;10.70;62.77;94461.47;5076146;28;702;-75
2023/03/26 02:52:10;;;;;;;;;;;;;;;10.63;62.54;94466.09;5074517;28;1184;-75
2023/03/26 02:54:37;;;;;;;;;;;;;;;10.62;62.58;94464.50;5074785;28;1165;-75
2023/03/26 02:57:07;;;;;;;;;;;;;;;10.61;62.42;94485.75;5075294;28;999;-75
2023/03/26 02:59:35;;;;;;;;;;;;;;;10.55;62.89;94479.75;5090924;28;1561;-75
2023/03/26 03:02:08;;;;;;;;;;;;;;;10.54;63.01;94489.19;5075626;28;710;-76
2023/03/26 03:04:36;;;;;;;;;;;;;;;10.57;62.61;94491.22;5075436;28;983;-75
2023/03/26 03:07:04;;;;;;;;;;;;;;;10.54;62.46;94486.44;5075185;28;1906;-75
2023/03/26 03:09:33;;;;;;;;;;;;;;;10.50;62.00;94488.34;5075428;28;1042;-75
2023/03/26 03:12:01;;;;;;;;;;;;;;;10.49;62.30;94486.72;5091502;28;1075;-75
2023/03/26 03:14:28;;;;;;;;;;;;;;;10.46;62.53;94490.22;5074192;28;1624;-75
2023/03/26 03:16:56;;;;;;;;;;;;;;;10.42;62.21;94496.81;5074954;28;1155;-75
2023/03/26 03:19:29;;;;;;;;;;;;;;;10.41;62.41;94507.06;5073790;28;1142;-74
2023/03/26 03:22:00;;;;;;;;;;;;;;;10.39;62.46;94508.59;5075282;28;1033;-75
2023/03/26 03:24:26;;;;;;;;;;;;;;;10.36;62.42;94512.88;5081879;28;1156;-75
2023/03/26 03:26:56;;;;;;;;;;;;;;;10.25;62.38;94520.13;5077854;28;1107;-75
2023/03/26 03:29:27;;;;;;;;;;;;;;;10.20;62.96;94512.91;5077593;28;1987;-75
2023/03/26 03:31:56;;;;;;;;;;;;;;;10.21;62.76;94522.81;5077746;28;1204;-74
2023/03/26 03:34:26;;;;;;;;;;;;;;;10.21;62.90;94509.03;5095064;28;1019;-74
2023/03/26 03:37:00;;;;;;;;;;;;;;;10.17;63.11;94513.66;5094906;28;963;-73
2023/03/26 03:39:28;;;;;;;;;;;;;;;10.16;63.01;94509.31;5077117;28;1169;-74
2023/03/26 03:41:55;;;;;;;;;;;;;;;10.13;63.14;94496.28;5095203;28;1002;-74
2023/03/26 03:44:23;;;;;;;;;;;;;;;10.10;63.38;94494.25;5077591;28;1216;-74
2023/03/26 03:46:54;;;;;;;;;;;;;;;10.06;63.36;94493.38;5095146;28;1229;-74
2023/03/26 03:49:26;;;;;;;;;;;;;;;10.04;63.40;94496.47;5077183;28;1922;-73
2023/03/26 03:51:53;;;;;;;;;;;;;;;10.06;63.43;94504.41;5077624;28;1392;-74
2023/03/26 03:54:27;;;;;;;;;;;;;;;10.07;63.30;94501.28;5077723;28;1132;-74
2023/03/26 03:56:57;;;;;;;;;;;;;;;10.08;63.18;94502.84;5077556;28;1158;-74
2023/03/26 03:59:27;;;;;;;;;;;;;;;10.06;63.35;94507.94;5094993;28;1022;-75
2023/03/26 04:01:55;;;;;;;;;;;;;;;10.02;63.25;94504.31;5095161;28;974;-74
2023/03/26 04:04:23;;;;;;;;;;;;;;;10.01;63.26;94499.16;5095021;28;1167;-74
2023/03/26 04:06:54;;;;;;;;;;;;;;;9.97;63.51;94496.34;5094967;28;994;-73
2023/03/26 04:09:26;;;;;;;;;;;;;;;9.96;63.67;94502.22;5094544;28;1913;-74
2023/03/26 04:11:56;;;;;;;;;;;;;;;9.91;63.57;94506.03;5094881;28;1045;-75
2023/03/26 04:14:24;;;;;;;;;;;;;;;9.94;63.67;94518.31;5077218;28;1106;-74
2023/03/26 04:16:52;;;;;;;;;;;;;;;9.94;63.73;94523.81;5077128;28;1210;-74
2023/03/26 04:19:20;;;;;;;;;;;;;;;9.97;63.58;94532.16;5077142;28;1117;-74
2023/03/26 04:22:01;;;;;;;;;;;;;;;9.98;63.58;94538.44;5076994;28;1063;-74
2023/03/26 04:24:32;;;;;;;;;;;;;;;9.94;63.80;94540.34;5094448;28;1153;-74
2023/03/26 04:27:05;;;;;;;;;;;;;;;9.98;63.70;94538.44;5093693;28;1212;-74
2023/03/26 04:29:37;;;;;;;;;;;;;;;10.00;63.75;94558.19;5094638;28;1910;-74
2023/03/26 04:32:07;;;;;;;;;;;;;;;9.99;63.52;94556.59;5096127;28;979;-74
2023/03/26 04:34:36;;;;;;;;;;;;;;;9.99;63.73;94562.91;5080727;28;1226;-75
2023/03/26 04:37:07;;;;;;;;;;;;;;;10.01;63.35;94559.78;5080731;28;1238;-74
2023/03/26 04:39:39;;;;;;;;;;;;;;;10.00;63.26;94566.44;5098289;28;951;-74
2023/03/26 04:42:08;;;;;;;;;;;;;;;9.98;63.30;94572.31;5098233;28;1012;-74
2023/03/26 04:44:36;;;;;;;;;;;;;;;9.98;63.27;94569.56;5080549;28;1164;-72
2023/03/26 04:47:03;;;;;;;;;;;;;;;9.99;63.05;94579.44;5098183;28;1008;-73
2023/03/26 04:49:32;;;;;;;;;;;;;;;10.08;63.74;94585.50;5080253;28;1913;-73
2023/03/26 04:52:02;;;;;;;;;;;;;;;10.21;63.52;94588.16;5079941;28;1466;-73
2023/03/26 04:54:30;;;;;;;;;;;;;;;10.31;62.80;94588.41;5098147;28;962;-73
2023/03/26 04:57:01;;;;;;;;;;;;;;;10.31;62.05;94585.66;5098005;28;974;-72
2023/03/26 04:59:33;;;;;;;;;;;;;;;10.34;62.10;94587.66;5080043;28;1166;-73
2023/03/26 05:02:04;;;;;;;;;;;;;;;10.39;61.25;94585.78;5079740;28;1314;-73
2023/03/26 05:04:37;;;;;;;;;;;;;;;10.38;61.09;94595.19;5097450;28;1231;-73
2023/03/26 05:07:08;;;;;;;;;;;;;;;10.40;60.74;94601.16;5079666;28;1084;-73
2023/03/26 05:09:35;;;;;;;;;;;;;;;10.36;60.60;94601.09;5079889;28;1981;-73
2023/03/26 05:12:04;;;;;;;;;;;;;;;10.34;60.77;94601.44;5097671;28;982;-73
2023/03/26 05:14:35;;;;;;;;;;;;;;;10.30;60.31;94610.81;5079730;28;1112;-73
2023/03/26 05:17:04;;;;;;;;;;;;;;;10.29;60.56;94601.75;5079798;28;1116;-73
2023/03/26 05:19:34;;;;;;;;;;;;;;;10.21;60.95;94604.69;5096999;28;1046;-73
2023/03/26 05:22:04;;;;;;;;;;;;;;;10.15;61.31;94609.69;5097617;28;1158;-73
2023/03/26 05:24:32;;;;;;;;;;;;;;;10.15;61.61;94611.63;5076266;28;1211;-73
2023/03/26 05:26:59;;;;;;;;;;;;;;;10.13;61.96;94621.06;5076834;28;1176;-74
2023/03/26 05:29:33;;;;;;;;;;;;;;;10.16;62.16;94611.25;5077628;28;1969;-74
2023/03/26 05:32:03;;;;;;;;;;;;;;;10.20;61.98;94616.84;5076150;28;1096;-73
2023/03/26 05:34:31;;;;;;;;;;;;;;;10.18;61.98;94619.19;5076595;28;1025;-74
2023/03/26 05:36:58;;;;;;;;;;;;;;;10.21;62.41;94616.50;5076835;28;1072;-74
2023/03/26 05:39:28;;;;;;;;;;;;;;;10.25;62.22;94614.66;5075962;28;1140;-73
2023/03/26 05:41:55;;;;;;;;;;;;;;;10.32;62.35;94612.03;5076794;28;1033;-73
2023/03/26 05:44:21;;;;;;;;;;;;;;;10.35;61.49;94614.09;5076162;28;1148;-73
2023/03/26 05:46:54;;;;;;;;;;;;;;;10.39;61.55;94621.63;5076584;28;1010;-74
2023/03/26 05:49:23;;;;;;;;;;;;;;;10.35;60.98;94624.31;5076521;28;1913;-74
2023/03/26 05:51:53;;;;;;;;;;;;;;;10.32;60.83;94630.53;5075377;28;1215;-73
2023/03/26 05:54:24;;;;;;;;;;;;;;;10.31;60.72;94624.25;5092503;28;1261;-71
2023/03/26 05:56:55;;;;;;;;;;;;;;;10.25;61.09;94622.91;5075655;28;1245;-73
2023/03/26 05:59:25;;;;;;;;;;;;;;;10.27;61.19;94617.81;5076469;28;810;-74
2023/03/26 06:02:01;;;;;;;;;;;;;;;10.30;61.39;94619.88;5076437;28;994;-74
2023/03/26 06:04:30;;;;;;;;;;;;;;;10.32;61.61;94625.03;5092403;28;1200;-73
2023/03/26 06:07:00;;;;;;;;;;;;;;;10.36;61.34;94623.16;5076037;28;1023;-74
2023/03/26 06:09:30;;;;;;;;;;;;;;;10.43;60.97;94617.78;5074791;28;1989;-74
2023/03/26 06:12:03;;;;;;;;;;;;;;;10.49;60.77;94619.06;5075764;28;1192;-75
2023/03/26 06:14:31;;;;;;;;;;;;;;;10.54;60.16;94610.50;5075157;28;1191;-73
2023/03/26 06:17:10;;;;;;;;;;;;;;;10.67;59.94;94607.59;5074706;28;1553;-74
2023/03/26 06:19:40;;;;;;;;;;;;;;;10.74;59.30;94607.72;5075719;28;983;-74
2023/03/26 06:22:08;;;;;;;;;;;;;;;10.74;59.13;94616.00;5075483;28;1100;-74
2023/03/26 06:24:36;;;;;;;;;;;;;;;10.74;59.31;94611.28;5074210;28;1348;-74
2023/03/26 06:27:04;;;;;;;;;;;;;;;10.74;58.75;94616.00;5075907;28;1107;-74
2023/03/26 06:29:34;;;;;;;;;;;;;;;10.63;58.26;94615.78;5074389;28;1914;-74
2023/03/26 06:32:07;;;;;;;;;;;;;;;10.54;58.42;94612.47;5074637;28;1384;-74
2023/03/26 06:34:35;;;;;;;;;;;;;;;10.54;58.78;94613.28;5075800;28;1021;-74
2023/03/26 06:37:05;;;;;;;;;;;;;;;10.58;58.40;94610.59;5074763;28;1195;-74
2023/03/26 06:39:35;;;;;;;;;;;;;;;10.56;58.00;94616.44;5074703;28;937;-74
2023/03/26 06:42:06;;;;;;;;;;;;;;;10.54;57.83;94609.72;5075064;28;1133;-71
2023/03/26 06:44:34;;;;;;;;;;;;;;;10.59;57.66;94612.97;5074850;28;1168;-74
2023/03/26 06:47:04;;;;;;;;;;;;;;;10.63;57.62;94607.53;5075622;28;1129;-74
2023/03/26 06:49:34;;;;;;;;;;;;;;;10.70;57.39;94618.69;5075533;28;1969;-74
2023/03/26 06:52:04;;;;;;;;;;;;;;;10.73;57.31;94619.94;5075597;28;986;-74
2023/03/26 06:54:31;;;;;;;;;;;;;;;10.75;56.90;94625.91;5073942;28;1187;-74
2023/03/26 06:56:59;;;;;;;;;;;;;;;10.75;56.63;94631.41;5075416;28;1072;-75
2023/03/26 06:59:27;;;;;;;;;;;;;;;10.80;56.28;94636.63;5075053;28;1394;-74
2023/03/26 07:01:55;;;;;;;;;;;;;;;10.78;55.61;94639.75;5075535;28;943;-74
2023/03/26 07:04:28;;;;;;;;;;;;;;;10.83;55.99;94635.91;5074528;28;1232;-74
2023/03/26 07:06:58;;;;;;;;;;;;;;;10.91;55.91;94631.31;5074532;28;1217;-75
2023/03/26 07:09:33;;;;;;;;;;;;;;;10.98;55.83;94632.25;5074316;28;1890;-75
2023/03/26 07:12:00;;;;;;;;;;;;;;;10.94;55.57;94628.63;5074332;28;1177;-75
2023/03/26 07:14:30;;;;;;;;;;;;;;;10.93;55.79;94631.72;5074646;28;1051;-74
2023/03/26 07:17:00;;;;;;;;;;;;;;;10.98;55.78;94628.69;5074343;28;1245;-75
2023/03/26 07:19:28;;;;;;;;;;;;;;;11.07;56.23;94629.22;5074293;28;1120;-74
2023/03/26 07:22:04;;;;;;;;;;;;;;;11.17;56.33;94625.88;5074396;28;1056;-74
2023/03/26 07:24:32;;;;;;;;;;;;;;;11.23;56.24;94621.66;5081957;28;1265;-72
2023/03/26 07:27:03;;;;;;;;;;;;;;;11.29;55.97;94613.84;5077061;28;1092;-74
2023/03/26 07:29:36;;;;;;;;;;;;;;;11.31;55.83;94608.75;5077372;28;1910;-73
2023/03/26 07:32:20;;;;;;;;;;;;;;;11.41;55.86;94612.88;5077715;28;1114;-76
2023/03/26 07:34:55;;;;;;;;;;;;;;;11.42;54.43;94606.19;5077422;28;1735;-72
2023/03/26 07:37:49;;;;;;;;;;;;;;;11.45;53.19;94609.00;5077311;28;1182;-73
2023/03/26 07:40:43;;;;;;;;;;;;;;;11.47;52.37;94617.69;5095511;28;978;-74
2023/03/26 07:43:15;;;;;;;;;;;;;;;11.56;52.68;94607.22;5077034;28;1327;-74
2023/03/26 07:45:43;;;;;;;;;;;;;;;11.65;52.11;94612.47;5095154;28;1182;-74
2023/03/26 07:48:18;;;;;;;;;;;;;;;11.66;51.98;94605.00;5077766;28;1169;-74
2023/03/26 07:50:47;;;;;;;;;;;;;;;11.72;51.59;94606.25;5094941;28;1902;-74
2023/03/26 07:53:18;;;;;;;;;;;;;;;11.85;52.46;94598.59;5076970;28;1102;-73
2023/03/26 07:55:54;;;;;;;;;;;;;;;12.02;52.39;94600.81;5094894;28;994;-74
2023/03/26 07:58:29;;;;;;;;;;;;;;;12.11;49.43;94598.56;5094804;28;1314;-73
2023/03/26 08:00:59;;;;;;;;;;;;;;;12.18;49.70;94595.09;5093793;28;1298;-73
2023/03/26 08:03:35;;;;;;;;;;;;;;;12.27;50.70;94593.66;5077082;28;1103;-73
2023/03/26 08:06:11;;;;;;;;;;;;;;;12.35;47.84;94585.47;5077361;28;1210;-74
2023/03/26 08:08:45;;;;;;;;;;;;;;;12.47;49.00;94586.00;5098532;28;1914;-74
2023/03/26 08:11:17;;;;;;;;;;;;;;;12.47;47.52;94588.75;5098790;28;1119;-74
2023/03/26 08:13:51;;;;;;;;;;;;;;;12.49;47.23;94591.97;5098758;28;1032;-73
2023/03/26 08:16:24;;;;;;;;;;;;;;;12.52;48.36;94593.94;5081123;28;1074;-73
2023/03/26 08:18:54;;;;;;;;;;;;;;;12.64;46.31;94592.13;5098729;28;1103;-74
2023/03/26 08:21:24;;;;;;;;;;;;;;;12.71;46.32;94601.31;5080839;28;1188;-74
2023/03/26 08:24:03;;;;;;;;;;;;;;;12.75;45.51;94601.34;5080613;28;1314;-74
2023/03/26 08:26:35;;;;;;;;;;;;;;;12.80;45.34;94600.22;5080473;28;1111;-74
2023/03/26 08:29:07;;;;;;;;;;;;;;;12.86;45.98;94590.41;5080672;28;1977;-73
2023/03/26 08:31:37;;;;;;;;;;;;;;;13.07;47.79;94604.47;5098560;28;998;-74
2023/03/26 08:34:06;;;;;;;;;;;;;;;13.24;45.27;94608.59;5080130;28;1349;-74
2023/03/26 08:36:33;;;;;;;;;;;;;;;13.32;45.00;94615.78;5080165;28;1197;-74
2023/03/26 08:39:04;;;;;;;;;;;;;;;13.35;46.27;94606.72;5080184;28;1370;-73
2023/03/26 08:41:51;;;;;;;;;;;;;;;13.48;44.69;94612.78;5098234;28;1042;-74
2023/03/26 08:44:39;;;;;;;;;;;;;;;13.58;43.54;94602.97;5080727;28;991;-73
2023/03/26 08:47:21;;;;;;;;;;;;;;;13.67;42.66;94607.00;5060167;28;1199;-73
2023/03/26 08:50:03;;;;;;;;;;;;;;;13.72;42.67;94609.44;5097639;28;1906;-73
2023/03/26 08:52:42;;;;;;;;;;;;;;;13.77;41.85;94602.72;5097732;28;1030;-73
2023/03/26 08:55:33;;;;;;;;;;;;;;;13.91;42.25;94608.38;5098099;28;943;-73
2023/03/26 08:58:21;;;;;;;;;;;;;;;14.04;42.35;94608.84;5076167;28;1299;-71
2023/03/26 09:01:07;;;;;;;;;;;;;;;14.06;41.24;94611.25;5086693;28;1233;-74
2023/03/26 09:03:51;;;;;;;;;;;;;;;14.11;41.83;94608.09;5070473;28;1242;-73
2023/03/26 09:06:42;;;;;;;;;;;;;;;14.13;42.57;94601.00;5065273;28;1200;-73
2023/03/26 09:09:27;;;;;;;;;;;;;;;14.26;42.33;94608.97;5079976;28;1913;-74
2023/03/26 09:12:23;;;;;;;;;;;;;;;14.42;42.47;94604.72;5097804;28;1066;-74
2023/03/26 09:15:08;;;;;;;;;;;;;;;14.43;40.43;94600.75;5045693;28;1157;-74
2023/03/26 09:17:49;;;;;;;;;;;;;;;14.38;40.75;94581.72;5096998;28;1238;-74
2023/03/26 09:20:40;;;;;;;;;;;;;;;14.40;40.73;94584.88;5097810;28;1061;-74
2023/03/26 09:23:26;;;;;;;;;;;;;;;14.34;40.48;94588.41;5077288;28;1165;-75
2023/03/26 09:26:06;;;;;;;;;;;;;;;14.22;42.52;94586.78;5075905;28;1293;-75
2023/03/26 09:28:53;;;;;;;;;;;;;;;14.17;42.85;94582.41;5076276;28;1085;-75
2023/03/26 09:31:28;;;;;;;;;;;;;;;14.28;43.45;94582.47;5075780;28;1910;-75
2023/03/26 09:33:58;;;;;;;;;;;;;;;14.39;41.50;94577.75;5092716;28;1199;-74
2023/03/26 09:36:42;;;;;;;;;;;;;;;14.45;42.14;94578.16;5076935;28;1042;-75
2023/03/26 09:39:10;;;;;;;;;;;;;;;14.52;42.98;94567.13;5066093;28;1199;-75
2023/03/26 09:41:44;;;;;;;;;;;;;;;14.60;43.89;94570.75;5076466;28;1132;-74
2023/03/26 09:44:28;;;;;;;;;;;;;;;14.57;42.74;94571.53;5076395;28;1099;-74
2023/03/26 09:47:05;;;;;;;;;;;;;;;14.67;41.41;94565.22;5055474;28;1152;-74
2023/03/26 09:49:44;;;;;;;;;;;;;;;14.83;42.63;94573.97;5076125;28;1988;-74
2023/03/26 09:52:31;;;;;;;;;;;;;;;14.91;41.40;94553.38;5076593;28;1281;-75
2023/03/26 09:55:07;;;;;;;;;;;;;;;15.02;41.61;94553.41;5076508;28;959;-74
2023/03/26 09:57:57;;;;;;;;;;;;;;;15.13;42.45;94551.44;5076726;28;1071;-75
2023/03/26 10:00:33;;;;;;;;;;;;;;;15.29;40.74;94551.06;5077087;28;786;-75
2023/03/26 10:03:15;;;;;;;;;;;;;;;15.37;40.49;94540.75;5076232;28;1017;-75
2023/03/26 10:05:53;;;;;;;;;;;;;;;15.48;38.15;94552.66;5075667;28;1111;-74
2023/03/26 10:08:36;;;;;;;;;;;;;;;15.49;40.08;94534.00;5075557;28;1043;-74
2023/03/26 10:11:06;;;;;;;;;;;;;;;15.52;37.39;94541.53;5075379;28;1914;-75
2023/03/26 10:13:42;;;;;;;;;;;;;;;15.40;37.55;94532.41;5075591;28;1412;-74
2023/03/26 10:16:17;;;;;;;;;;;;;;;15.37;38.74;94533.19;5076939;28;951;-74
2023/03/26 10:18:49;;;;;;;;;;;;;;;15.71;39.69;94521.69;5075877;28;1180;-74
2023/03/26 10:21:18;;;;;;;;;;;;;;;15.97;37.16;94514.09;5075136;28;1199;-74
2023/03/26 10:24:01;;;;;;;;;;;;;;;16.13;36.98;94506.13;5076597;28;976;-74
2023/03/26 10:26:38;;;;;;;;;;;;;;;16.28;38.08;94506.88;5056102;28;1182;-74
2023/03/26 10:29:20;;;;;;;;;;;;;;;16.61;36.87;94505.53;5060319;28;1243;-74
2023/03/26 10:31:50;;;;;;;;;;;;;;;16.87;37.13;94497.84;5076141;28;1459;-73
2023/03/26 10:34:35;;;;;;;;;;;;;;;16.98;35.78;94493.78;5075724;28;1370;-74
2023/03/26 10:37:07;;;;;;;;;;;;;;;17.03;33.45;94495.34;5074566;28;1060;-74
2023/03/26 10:39:43;;;;;;;;;;;;;;;17.08;34.29;94486.56;5075397;28;1192;-74
2023/03/26 10:42:16;;;;;;;;;;;;;;;17.16;33.72;94490.88;5075895;28;983;-74
2023/03/26 10:44:54;;;;;;;;;;;;;;;17.24;33.79;94483.25;5076466;28;931;-74
2023/03/26 10:47:44;;;;;;;;;;;;;;;17.14;33.53;94482.16;5075202;28;931;-74
2023/03/26 10:50:44;;;;;;;;;;;;;;;17.10;32.32;94475.78;5071941;28;1914;-74
2023/03/26 10:53:15;;;;;;;;;;;;;;;17.22;32.50;94480.09;5075816;28;1014;-74
2023/03/26 10:55:45;;;;;;;;;;;;;;;17.44;32.51;94486.31;5075381;28;1195;-73
2023/03/26 10:58:14;;;;;;;;;;;;;;;17.52;31.02;94482.25;5075364;28;1077;-74
2023/03/26 11:00:44;;;;;;;;;;;;;;;17.69;32.02;94472.13;5076009;28;997;-74
2023/03/26 11:03:39;;;;;;;;;;;;;;;17.60;31.17;94469.81;5074729;28;1283;-74
2023/03/26 11:06:08;;;;;;;;;;;;;;;17.64;34.01;94473.34;5072710;28;1390;-73
2023/03/26 11:08:37;;;;;;;;;;;;;;;17.55;32.00;94473.06;5075142;28;1244;-73
2023/03/26 11:11:09;;;;;;;;;;;;;;;17.49;31.21;94480.28;5074885;28;1910;-75
2023/03/26 11:13:41;;;;;;;;;;;;;;;17.47;30.87;94466.75;5076011;28;1081;-75
2023/03/26 11:16:13;;;;;;;;;;;;;;;17.65;32.83;94449.88;5075443;28;1158;-74
2023/03/26 11:18:43;;;;;;;;;;;;;;;17.71;31.75;94464.13;5075832;28;838;-74
2023/03/26 11:21:14;;;;;;;;;;;;;;;17.84;30.48;94456.09;5075901;28;1054;-74
2023/03/26 11:23:43;;;;;;;;;;;;;;;17.73;30.40;94443.00;5075123;28;1194;-74
2023/03/26 11:26:14;;;;;;;;;;;;;;;17.69;31.72;94452.63;5074286;28;1364;-74
2023/03/26 11:29:06;;;;;;;;;;;;;;;17.71;29.84;94437.03;5074866;28;1282;-74
2023/03/26 11:31:40;;;;;;;;;;;;;;;17.80;30.64;94439.38;5075632;28;1971;-74
2023/03/26 11:34:09;;;;;;;;;;;;;;;17.79;28.79;94435.00;5075570;28;1081;-74
2023/03/26 11:36:38;;;;;;;;;;;;;;;17.75;29.89;94429.44;5075814;28;939;-75
2023/03/26 11:39:08;;;;;;;;;;;;;;;17.71;32.10;94427.88;5075478;28;772;-74
2023/03/26 11:41:38;;;;;;;;;;;;;;;17.98;30.98;94430.81;5076543;28;1381;-74
2023/03/26 11:44:08;;;;;;;;;;;;;;;18.20;31.46;94431.34;5079203;28;1187;-75
2023/03/26 11:46:42;;;;;;;;;;;;;;;18.20;28.69;94415.41;5079725;28;985;-74
2023/03/26 11:49:10;;;;;;;;;;;;;;;18.20;30.74;94403.44;5078760;28;1326;-75
2023/03/26 11:51:39;;;;;;;;;;;;;;;18.23;30.97;94397.03;5079175;28;1997;-75
2023/03/26 11:54:09;;;;;;;;;;;;;;;18.41;31.36;94385.59;5079904;28;1526;-74
2023/03/26 11:56:39;;;;;;;;;;;;;;;18.61;30.81;94385.72;5079557;28;1239;-74
2023/03/26 11:59:30;;;;;;;;;;;;;;;18.61;29.20;94377.34;5080565;28;1039;-74
2023/03/26 12:02:17;;;;;;;;;;;;;;;18.66;27.91;94372.06;5078873;28;1189;-74
2023/03/26 12:04:46;;;;;;;;;;;;;;;18.57;27.64;94371.03;5079528;28;982;-74
2023/03/26 12:07:16;;;;;;;;;;;;;;;18.25;27.45;94366.69;5078906;28;1038;-74
2023/03/26 12:09:53;;;;;;;;;;;;;;;17.94;28.72;94358.31;5077540;28;1087;-74
2023/03/26 12:12:19;;;;;;;;;;;;;;;18.23;28.56;94357.97;5078036;28;1328;-74
2023/03/26 12:14:47;;;;;;;;;;;;;;;18.45;29.10;94355.66;5077884;28;1211;-74
2023/03/26 12:17:25;;;;;;;;;;;;;;;18.59;28.33;94351.84;5077954;28;966;-74
2023/03/26 12:19:53;;;;;;;;;;;;;;;18.76;29.46;94348.03;5078461;28;1088;-74
2023/03/26 12:22:30;;;;;;;;;;;;;;;18.95;27.49;94338.13;5078578;28;1065;-75
2023/03/26 12:25:14;;;;;;;;;;;;;;;19.13;26.86;94335.03;5088126;28;1298;-74
2023/03/26 12:27:44;;;;;;;;;;;;;;;19.23;26.73;94334.06;5080886;28;1221;-74
2023/03/26 12:30:19;;;;;;;;;;;;;;;19.31;24.50;94327.13;5080831;28;1914;-75
2023/03/26 12:32:49;;;;;;;;;;;;;;;19.44;26.28;94321.72;5081261;28;1117;-75
2023/03/26 12:35:17;;;;;;;;;;;;;;;19.69;24.90;94319.25;5080442;28;1191;-75
2023/03/26 12:37:47;;;;;;;;;;;;;;;19.74;23.04;94308.78;5081363;28;1300;-75
2023/03/26 12:40:34;;;;;;;;;;;;;;;19.45;23.81;94309.28;5098522;28;1014;-74
2023/03/26 12:43:03;;;;;;;;;;;;;;;19.26;23.96;94308.06;5098067;28;1020;-74
2023/03/26 12:45:30;;;;;;;;;;;;;;;19.43;24.39;94308.94;5098010;28;1101;-74
2023/03/26 12:48:03;;;;;;;;;;;;;;;19.55;24.72;94305.50;5080735;28;1261;-75
2023/03/26 12:50:35;;;;;;;;;;;;;;;19.69;23.65;94296.09;5080032;28;1988;-74
2023/03/26 12:53:15;;;;;;;;;;;;;;;19.72;22.88;94300.81;5079739;28;1234;-74
2023/03/26 12:55:45;;;;;;;;;;;;;;;19.80;22.85;94293.84;5080641;28;1260;-75
2023/03/26 12:58:22;;;;;;;;;;;;;;;20.01;23.85;94303.00;5080550;28;1183;-75
2023/03/26 13:00:55;;;;;;;;;;;;;;;20.21;22.06;94289.78;5080471;28;1096;-75
2023/03/26 13:03:36;;;;;;;;;;;;;;;20.25;22.57;94293.28;5080185;28;1269;-75
2023/03/26 13:06:12;;;;;;;;;;;;;;;20.16;23.20;94290.28;5079824;28;1085;-75
2023/03/26 13:08:51;;;;;;;;;;;;;;;20.24;22.74;94296.53;5097542;28;796;-75
2023/03/26 13:11:21;;;;;;;;;;;;;;;20.40;21.64;94297.31;5080037;28;1910;-75
2023/03/26 13:13:57;;;;;;;;;;;;;;;20.49;21.52;94288.34;5097798;28;1037;-75
2023/03/26 13:16:28;;;;;;;;;;;;;;;20.67;21.32;94282.34;5079958;28;1198;-75
2023/03/26 13:19:00;;;;;;;;;;;;;;;20.82;21.48;94285.59;5079985;28;1117;-75
2023/03/26 13:21:31;;;;;;;;;;;;;;;20.92;20.98;94281.72;5096739;28;883;-76
2023/03/26 13:24:01;;;;;;;;;;;;;;;20.80;21.68;94288.03;5079761;28;1394;-76
2023/03/26 13:26:36;;;;;;;;;;;;;;;20.83;20.26;94279.53;5097306;28;1075;-76
2023/03/26 13:29:05;;;;;;;;;;;;;;;20.92;22.14;94276.13;5079929;28;1245;-75